createdAt,value
2023-02-26T00:00:59.891Z,100.00
2023-02-26T00:04:06.331Z,100.00
2023-02-26T00:07:08.791Z,100.00
2023-02-26T00:10:17.940Z,100.00
2023-02-26T00:13:20.109Z,100.00
2023-02-26T00:16:25.231Z,100.00
2023-02-26T00:19:27.317Z,100.00
2023-02-26T00:22:29.410Z,100.00
2023-02-26T00:25:31.399Z,99.97
2023-02-26T00:28:33.661Z,99.85
2023-02-26T00:31:35.806Z,99.98
2023-02-26T00:34:38.182Z,100.00
2023-02-26T00:37:53.866Z,100.00
2023-02-26T00:40:56.917Z,100.00
2023-02-26T00:43:59.134Z,99.97
2023-02-26T00:47:14.902Z,99.63
2023-02-26T00:50:22.006Z,99.76
2023-02-26T00:53:48.162Z,99.78
2023-02-26T00:56:54.010Z,99.56
2023-02-26T00:59:55.850Z,99.92
2023-02-26T01:03:00.622Z,99.85
2023-02-26T01:06:02.937Z,100.00
2023-02-26T01:09:27.865Z,99.79
2023-02-26T01:12:29.971Z,99.74
2023-02-26T01:15:36.909Z,99.64
2023-02-26T01:18:45.768Z,99.83
2023-02-26T01:21:53.112Z,99.27
2023-02-26T01:25:02.563Z,98.88
2023-02-26T01:28:07.987Z,99.52
2023-02-26T01:31:30.465Z,99.04
2023-02-26T01:34:39.356Z,99.01
2023-02-26T01:37:43.365Z,98.92
2023-02-26T01:41:05.585Z,98.60
2023-02-26T01:44:10.290Z,99.02
2023-02-26T01:47:22.811Z,98.90
2023-02-26T01:50:30.072Z,99.07
2023-02-26T01:53:34.386Z,99.16
2023-02-26T01:56:37.142Z,98.57
2023-02-26T01:59:45.559Z,98.56
2023-02-26T02:02:49.117Z,98.81
2023-02-26T02:06:12.135Z,98.49
2023-02-26T02:09:16.429Z,98.32
2023-02-26T02:12:33.182Z,98.26
2023-02-26T02:16:01.192Z,98.29
2023-02-26T02:19:24.380Z,97.85
2023-02-26T02:23:05.370Z,97.65
2023-02-26T02:26:28.621Z,97.77
2023-02-26T02:29:51.793Z,97.14
2023-02-26T02:33:00.720Z,97.30
2023-02-26T02:36:10.808Z,97.11
2023-02-26T02:39:20.350Z,97.06
2023-02-26T02:42:32.114Z,97.06
2023-02-26T02:46:02.318Z,96.81
2023-02-26T02:49:13.344Z,96.61
2023-02-26T02:52:23.749Z,96.10
2023-02-26T02:55:30.734Z,95.46
2023-02-26T02:58:38.678Z,95.11
2023-02-26T03:01:45.788Z,94.80
2023-02-26T03:04:48.509Z,94.03
2023-02-26T03:08:05.014Z,93.54
2023-02-26T03:11:08.006Z,93.78
2023-02-26T03:14:16.937Z,93.81
2023-02-26T03:17:54.792Z,93.94
2023-02-26T03:21:07.017Z,93.97
2023-02-26T03:24:13.767Z,93.82
2023-02-26T03:27:43.604Z,93.81
2023-02-26T03:30:57.414Z,93.78
2023-02-26T03:34:13.858Z,93.68
2023-02-26T03:37:28.297Z,93.46
2023-02-26T03:40:40.090Z,93.08
2023-02-26T03:44:02.451Z,93.13
2023-02-26T03:47:08.538Z,93.21
2023-02-26T03:50:24.578Z,93.13
2023-02-26T03:53:47.563Z,92.94
2023-02-26T03:56:55.450Z,92.93
2023-02-26T04:00:18.405Z,92.36
2023-02-26T04:03:40.328Z,92.11
2023-02-26T04:06:42.844Z,92.47
2023-02-26T04:09:51.944Z,92.18
2023-02-26T04:13:01.906Z,91.99
2023-02-26T04:16:04.580Z,92.25
2023-02-26T04:19:06.585Z,92.19
2023-02-26T04:22:09.038Z,92.21
2023-02-26T04:25:11.722Z,92.19
2023-02-26T04:28:13.836Z,92.27
2023-02-26T04:31:16.370Z,92.33
2023-02-26T04:34:18.844Z,92.05
2023-02-26T04:37:23.124Z,92.00
2023-02-26T04:40:25.259Z,92.04
2023-02-26T04:43:27.150Z,91.92
2023-02-26T04:46:45.742Z,91.71
2023-02-26T04:49:47.691Z,92.01
2023-02-26T04:52:49.760Z,92.02
2023-02-26T04:55:52.569Z,91.76
2023-02-26T04:58:54.900Z,92.14
2023-02-26T05:02:03.816Z,92.04
2023-02-26T05:05:06.172Z,92.15
2023-02-26T05:08:09.172Z,92.02
2023-02-26T05:11:11.620Z,92.12
2023-02-26T05:14:15.636Z,92.13
2023-02-26T05:17:19.836Z,91.94
2023-02-26T05:20:22.152Z,92.06
2023-02-26T05:23:24.273Z,91.95
2023-02-26T05:26:26.464Z,92.00
2023-02-26T05:29:28.547Z,91.87
2023-02-26T05:32:31.166Z,91.95
2023-02-26T05:35:34.056Z,92.16
2023-02-26T05:38:36.007Z,92.25
2023-02-26T05:41:37.942Z,92.41
2023-02-26T05:44:39.822Z,92.49
2023-02-26T05:47:41.678Z,92.25
2023-02-26T05:50:43.635Z,92.32
2023-02-26T05:53:46.154Z,92.19
2023-02-26T05:56:47.993Z,92.49
2023-02-26T05:59:52.208Z,92.23
2023-02-26T06:02:57.378Z,92.42
2023-02-26T06:05:59.349Z,92.28
2023-02-26T06:09:02.447Z,92.47
2023-02-26T06:12:04.628Z,92.19
2023-02-26T06:15:07.870Z,92.11
2023-02-26T06:18:09.747Z,92.22
2023-02-26T06:21:11.837Z,92.18
2023-02-26T06:24:13.667Z,92.28
2023-02-26T06:27:15.840Z,92.08
2023-02-26T06:30:18.439Z,92.03
2023-02-26T06:33:20.762Z,92.04
2023-02-26T06:36:23.097Z,92.07
2023-02-26T06:39:25.211Z,92.22
2023-02-26T06:42:27.144Z,91.79
2023-02-26T06:45:29.008Z,92.14
2023-02-26T06:48:33.421Z,92.04
2023-02-26T06:51:35.959Z,91.81
2023-02-26T06:54:37.849Z,91.76
2023-02-26T06:57:39.891Z,91.88
2023-02-26T07:00:43.951Z,91.99
2023-02-26T07:03:45.914Z,91.83
2023-02-26T07:06:50.873Z,91.79
2023-02-26T07:09:52.787Z,91.80
2023-02-26T07:12:54.721Z,91.62
2023-02-26T07:15:56.717Z,91.59
2023-02-26T07:18:58.599Z,91.20
2023-02-26T07:22:00.710Z,91.28
2023-02-26T07:25:02.909Z,91.32
2023-02-26T07:28:06.230Z,91.33
2023-02-26T07:31:08.247Z,91.14
2023-02-26T07:34:10.271Z,91.18
2023-02-26T07:37:12.133Z,90.83
2023-02-26T07:40:14.386Z,91.07
2023-02-26T07:43:16.326Z,90.79
2023-02-26T07:46:18.305Z,90.78
2023-02-26T07:49:20.411Z,90.73
2023-02-26T07:52:22.802Z,90.52
2023-02-26T07:55:24.678Z,90.71
2023-02-26T07:58:43.595Z,90.65
2023-02-26T08:01:45.557Z,90.54
2023-02-26T08:04:47.665Z,90.18
2023-02-26T08:07:49.553Z,90.21
2023-02-26T08:10:51.449Z,90.14
2023-02-26T08:13:53.888Z,90.12
2023-02-26T08:16:57.114Z,90.17
2023-02-26T08:19:58.950Z,89.68
2023-02-26T08:23:01.125Z,89.68
2023-02-26T08:26:09.158Z,89.46
2023-02-26T08:29:11.122Z,89.32
2023-02-26T08:32:15.893Z,89.11
2023-02-26T08:35:20.371Z,89.16
2023-02-26T08:38:22.225Z,88.95
2023-02-26T08:41:25.285Z,88.55
2023-02-26T08:44:27.284Z,88.79
2023-02-26T08:47:29.362Z,88.45
2023-02-26T08:50:31.272Z,88.57
2023-02-26T08:53:33.250Z,88.47
2023-02-26T08:56:35.077Z,88.43
2023-02-26T08:59:36.870Z,88.15
2023-02-26T09:02:39.301Z,87.87
2023-02-26T09:05:41.307Z,87.78
2023-02-26T09:08:43.304Z,87.29
2023-02-26T09:11:45.556Z,87.50
2023-02-26T09:14:47.460Z,87.30
2023-02-26T09:17:49.601Z,86.96
2023-02-26T09:20:51.528Z,86.63
2023-02-26T09:23:53.393Z,86.67
2023-02-26T09:26:55.275Z,86.33
2023-02-26T09:29:57.149Z,86.56
2023-02-26T09:32:59.058Z,86.08
2023-02-26T09:36:01.609Z,85.56
2023-02-26T09:39:04.189Z,85.46
2023-02-26T09:42:16.806Z,84.98
2023-02-26T09:45:33.605Z,84.30
2023-02-26T09:48:38.812Z,84.07
2023-02-26T09:51:41.263Z,83.35
2023-02-26T09:54:47.470Z,82.78
2023-02-26T09:57:52.513Z,82.19
2023-02-26T10:01:19.011Z,80.45
2023-02-26T10:04:33.376Z,80.74
2023-02-26T10:07:53.980Z,79.88
2023-02-26T10:11:12.098Z,80.27
2023-02-26T10:14:26.709Z,79.65
2023-02-26T10:17:52.685Z,79.40
2023-02-26T10:20:58.770Z,79.67
2023-02-26T10:24:08.406Z,79.05
2023-02-26T10:27:16.479Z,78.83
2023-02-26T10:30:30.836Z,77.89
2023-02-26T10:33:44.841Z,78.30
2023-02-26T10:36:59.115Z,77.66
2023-02-26T10:40:13.784Z,77.58
2023-02-26T10:43:22.069Z,77.80
2023-02-26T10:46:39.246Z,77.11
2023-02-26T10:49:52.514Z,76.72
2023-02-26T10:52:55.420Z,76.85
2023-02-26T10:56:05.335Z,75.95
2023-02-26T10:59:07.315Z,75.82
2023-02-26T11:02:41.023Z,74.29
2023-02-26T11:05:43.003Z,75.03
2023-02-26T11:08:48.933Z,75.01
2023-02-26T11:11:57.001Z,74.35
2023-02-26T11:15:01.075Z,73.29
2023-02-26T11:18:04.062Z,73.28
2023-02-26T11:21:07.182Z,72.69
2023-02-26T11:24:15.164Z,73.45
2023-02-26T11:27:22.564Z,73.01
2023-02-26T11:30:27.343Z,72.54
2023-02-26T11:33:46.159Z,72.56
2023-02-26T11:36:48.561Z,72.87
2023-02-26T11:39:58.431Z,72.20
2023-02-26T11:43:06.291Z,72.14
2023-02-26T11:46:12.271Z,72.69
2023-02-26T11:49:17.035Z,72.88
2023-02-26T11:52:36.513Z,72.31
2023-02-26T11:55:49.066Z,72.48
2023-02-26T11:58:55.385Z,72.53
2023-02-26T12:02:03.771Z,72.67
2023-02-26T12:05:07.319Z,72.64
2023-02-26T12:08:25.434Z,72.83
2023-02-26T12:11:52.134Z,72.83
2023-02-26T12:15:29.230Z,73.10
2023-02-26T12:18:59.547Z,73.28
2023-02-26T12:22:15.507Z,73.74
2023-02-26T12:25:48.306Z,73.61
2023-02-26T12:29:08.665Z,73.74
2023-02-26T12:32:36.841Z,74.08
2023-02-26T12:36:23.850Z,74.07
2023-02-26T12:39:25.729Z,73.89
2023-02-26T12:42:51.834Z,73.70
2023-02-26T12:46:04.557Z,73.89
2023-02-26T12:49:25.038Z,73.64
2023-02-26T12:53:14.384Z,73.76
2023-02-26T12:56:33.915Z,73.82
2023-02-26T13:00:12.939Z,73.75
2023-02-26T13:03:47.178Z,73.96
2023-02-26T13:07:22.275Z,73.86
2023-02-26T13:10:33.477Z,73.98
2023-02-26T13:13:53.612Z,74.13
2023-02-26T13:17:01.255Z,74.31
2023-02-26T13:20:13.126Z,74.27
2023-02-26T13:23:23.520Z,73.95
2023-02-26T13:26:26.912Z,74.59
2023-02-26T13:29:41.637Z,74.53
2023-02-26T13:32:46.150Z,74.41
2023-02-26T13:35:54.095Z,74.43
2023-02-26T13:38:56.138Z,74.32
2023-02-26T13:42:29.168Z,73.97
2023-02-26T13:45:58.770Z,74.50
2023-02-26T13:49:00.804Z,74.45
2023-02-26T13:52:02.799Z,74.72
2023-02-26T13:55:05.979Z,75.01
2023-02-26T13:58:23.181Z,75.31
2023-02-26T14:01:33.518Z,75.21
2023-02-26T14:04:53.033Z,74.66
2023-02-26T14:08:22.312Z,74.91
2023-02-26T14:11:37.710Z,74.47
2023-02-26T14:15:04.740Z,72.79
2023-02-26T14:18:20.138Z,72.43
2023-02-26T14:21:25.444Z,72.71
2023-02-26T14:24:46.455Z,71.73
2023-02-26T14:27:50.024Z,72.09
2023-02-26T14:31:04.910Z,72.33
2023-02-26T14:34:30.052Z,72.98
2023-02-26T14:37:37.344Z,73.93
2023-02-26T14:41:33.789Z,74.13
2023-02-26T14:44:43.748Z,74.69
2023-02-26T14:47:47.261Z,74.86
2023-02-26T14:51:01.243Z,75.70
2023-02-26T14:54:06.078Z,75.71
2023-02-26T14:57:28.165Z,76.03
2023-02-26T15:00:51.194Z,76.32
2023-02-26T15:04:04.919Z,76.18
2023-02-26T15:07:29.924Z,76.39
2023-02-26T15:10:31.735Z,76.38
2023-02-26T15:13:39.446Z,76.59
2023-02-26T15:17:04.430Z,76.94
2023-02-26T15:20:23.943Z,76.93
2023-02-26T15:23:28.825Z,77.25
2023-02-26T15:26:32.777Z,77.35
2023-02-26T15:29:38.973Z,77.37
2023-02-26T15:32:43.624Z,77.80
2023-02-26T15:35:52.407Z,78.07
2023-02-26T15:38:57.413Z,78.76
2023-02-26T15:41:59.346Z,78.97
2023-02-26T15:45:04.044Z,79.39
2023-02-26T15:48:09.785Z,80.03
2023-02-26T15:51:16.959Z,80.35
2023-02-26T15:54:23.767Z,80.65
2023-02-26T15:57:27.434Z,81.38
2023-02-26T16:00:33.393Z,81.64
2023-02-26T16:03:38.336Z,82.19
2023-02-26T16:06:45.956Z,82.38
2023-02-26T16:09:51.679Z,82.63
2023-02-26T16:12:57.283Z,82.82
2023-02-26T16:16:04.828Z,82.97
2023-02-26T16:19:07.396Z,83.74
2023-02-26T16:22:42.562Z,84.23
2023-02-26T16:25:53.347Z,83.81
2023-02-26T16:29:07.323Z,84.38
2023-02-26T16:32:12.803Z,84.26
2023-02-26T16:35:22.893Z,84.50
2023-02-26T16:38:33.683Z,84.66
2023-02-26T16:41:39.314Z,85.21
2023-02-26T16:44:52.391Z,85.21
2023-02-26T16:47:57.151Z,85.15
2023-02-26T16:51:02.726Z,85.38
2023-02-26T16:54:17.540Z,85.79
2023-02-26T16:57:26.445Z,85.63
2023-02-26T17:00:31.609Z,85.86
2023-02-26T17:03:34.958Z,86.08
2023-02-26T17:06:39.932Z,86.10
2023-02-26T17:09:48.232Z,86.13
2023-02-26T17:12:53.071Z,86.60
2023-02-26T17:16:01.678Z,86.70
2023-02-26T17:19:03.806Z,87.15
2023-02-26T17:22:12.194Z,87.22
2023-02-26T17:25:16.703Z,87.48
2023-02-26T17:28:27.058Z,87.29
2023-02-26T17:31:29.276Z,87.03
2023-02-26T17:34:31.549Z,87.50
2023-02-26T17:37:35.151Z,87.07
2023-02-26T17:40:38.219Z,87.98
2023-02-26T17:43:39.954Z,88.38
2023-02-26T17:46:42.278Z,87.99
2023-02-26T17:49:47.070Z,87.70
2023-02-26T17:52:51.735Z,87.41
2023-02-26T17:55:55.010Z,87.60
2023-02-26T17:58:58.282Z,87.74
2023-02-26T18:02:00.802Z,87.84
2023-02-26T18:05:02.751Z,88.27
2023-02-26T18:08:27.623Z,88.29
2023-02-26T18:11:29.751Z,88.23
2023-02-26T18:14:31.619Z,88.10
2023-02-26T18:17:34.307Z,88.47
2023-02-26T18:20:39.731Z,88.35
2023-02-26T18:23:41.651Z,88.61
2023-02-26T18:26:43.637Z,88.47
2023-02-26T18:29:48.858Z,88.24
2023-02-26T18:32:50.926Z,88.52
2023-02-26T18:35:57.179Z,88.28
2023-02-26T18:39:01.528Z,88.55
2023-02-26T18:42:04.057Z,88.48
2023-02-26T18:45:06.450Z,88.42
2023-02-26T18:48:11.501Z,88.39
2023-02-26T18:51:13.760Z,88.62
2023-02-26T18:54:15.640Z,88.48
2023-02-26T18:57:17.532Z,88.73
2023-02-26T19:00:21.634Z,88.57
2023-02-26T19:03:23.546Z,88.51
2023-02-26T19:06:26.613Z,88.32
2023-02-26T19:09:28.870Z,88.78
2023-02-26T19:12:30.821Z,88.53
2023-02-26T19:15:32.812Z,88.24
2023-02-26T19:18:37.167Z,88.22
2023-02-26T19:21:40.340Z,88.13
2023-02-26T19:24:43.531Z,88.54
2023-02-26T19:27:45.356Z,88.21
2023-02-26T19:30:47.212Z,88.27
2023-02-26T19:33:49.301Z,88.33
2023-02-26T19:36:51.716Z,88.20
2023-02-26T19:39:53.637Z,88.42
2023-02-26T19:42:55.821Z,88.44
2023-02-26T19:45:57.820Z,88.25
2023-02-26T19:49:02.742Z,88.32
2023-02-26T19:52:05.097Z,88.33
2023-02-26T19:55:08.686Z,88.47
2023-02-26T19:58:10.575Z,88.42
2023-02-26T20:01:12.499Z,88.21
2023-02-26T20:04:14.791Z,88.49
2023-02-26T20:07:16.954Z,88.37
2023-02-26T20:10:19.678Z,88.65
2023-02-26T20:13:22.248Z,88.77
2023-02-26T20:16:27.090Z,88.49
2023-02-26T20:19:28.985Z,88.74
2023-02-26T20:22:32.002Z,88.68
2023-02-26T20:25:34.712Z,88.97
2023-02-26T20:28:36.934Z,88.93
2023-02-26T20:31:38.875Z,89.02
2023-02-26T20:34:40.847Z,89.24
2023-02-26T20:37:43.151Z,88.93
2023-02-26T20:40:45.372Z,89.03
2023-02-26T20:43:47.280Z,88.99
2023-02-26T20:46:51.354Z,89.17
2023-02-26T20:49:53.190Z,89.38
2023-02-26T20:53:00.245Z,89.29
2023-02-26T20:56:02.151Z,89.25
2023-02-26T20:59:04.056Z,89.23
2023-02-26T21:02:05.989Z,89.57
2023-02-26T21:05:09.619Z,89.77
2023-02-26T21:08:11.615Z,89.63
2023-02-26T21:11:13.862Z,89.47
2023-02-26T21:14:15.758Z,89.60
2023-02-26T21:17:17.798Z,89.64
2023-02-26T21:20:22.237Z,89.76
2023-02-26T21:23:26.557Z,89.48
2023-02-26T21:26:28.469Z,89.55
2023-02-26T21:29:30.430Z,89.51
2023-02-26T21:32:32.443Z,89.85
2023-02-26T21:35:34.617Z,89.58
2023-02-26T21:38:38.979Z,89.43
2023-02-26T21:41:41.175Z,89.43
2023-02-26T21:44:43.297Z,89.65
2023-02-26T21:47:46.967Z,89.61
2023-02-26T21:50:50.368Z,89.27
2023-02-26T21:53:52.280Z,89.46
2023-02-26T21:56:54.327Z,89.62
2023-02-26T21:59:56.225Z,89.39
2023-02-26T22:02:58.348Z,89.67
2023-02-26T22:06:03.031Z,89.66
2023-02-26T22:09:04.921Z,89.57
2023-02-26T22:12:07.146Z,90.00
2023-02-26T22:15:09.637Z,89.80
2023-02-26T22:18:14.181Z,90.09
2023-02-26T22:21:16.206Z,90.03
2023-02-26T22:24:19.445Z,90.04
2023-02-26T22:27:23.535Z,90.01
2023-02-26T22:30:25.562Z,90.15
2023-02-26T22:33:28.009Z,90.05
2023-02-26T22:36:31.435Z,89.89
2023-02-26T22:39:33.492Z,89.91
2023-02-26T22:42:35.400Z,89.69
2023-02-26T22:45:37.359Z,89.86
2023-02-26T22:48:39.283Z,89.84
2023-02-26T22:51:41.147Z,89.80
2023-02-26T22:54:48.564Z,90.07
2023-02-26T22:57:52.670Z,90.31
2023-02-26T23:01:05.900Z,90.00
2023-02-26T23:04:07.829Z,90.44
2023-02-26T23:07:09.699Z,90.04
2023-02-26T23:10:14.597Z,90.01
2023-02-26T23:13:16.700Z,89.87
2023-02-26T23:16:18.587Z,89.98
2023-02-26T23:19:20.586Z,89.86
2023-02-26T23:22:22.861Z,90.03
2023-02-26T23:25:26.692Z,90.00
2023-02-26T23:28:28.704Z,90.15
2023-02-26T23:31:30.928Z,90.30
2023-02-26T23:34:33.040Z,90.07
2023-02-26T23:37:35.145Z,90.46
2023-02-26T23:40:37.038Z,90.33
2023-02-26T23:43:41.800Z,90.28
2023-02-26T23:46:44.790Z,90.41
2023-02-26T23:49:46.535Z,90.47
2023-02-26T23:52:48.485Z,90.70
2023-02-26T23:55:52.645Z,90.22
2023-02-26T23:58:54.530Z,90.19
